createdAt,value
2022-10-05T00:00:50.837Z,70.85
2022-10-05T00:03:22.813Z,70.92
2022-10-05T00:05:53.526Z,70.54
2022-10-05T00:08:26.273Z,70.61
2022-10-05T00:10:56.905Z,70.28
2022-10-05T00:13:29.775Z,70.21
2022-10-05T00:16:10.436Z,69.99
2022-10-05T00:18:41.388Z,69.62
2022-10-05T00:21:20.613Z,69.79
2022-10-05T00:23:52.610Z,69.70
2022-10-05T00:26:25.182Z,69.95
2022-10-05T00:28:57.383Z,69.82
2022-10-05T00:31:32.382Z,69.36
2022-10-05T00:34:03.444Z,68.88
2022-10-05T00:36:34.414Z,68.70
2022-10-05T00:39:06.010Z,68.77
2022-10-05T00:41:50.353Z,69.41
2022-10-05T00:44:32.365Z,69.73
2022-10-05T00:47:15.786Z,69.44
2022-10-05T00:50:06.184Z,69.76
2022-10-05T00:52:47.460Z,69.69
2022-10-05T00:55:25.395Z,69.38
2022-10-05T00:58:07.880Z,69.33
2022-10-05T01:00:46.428Z,68.58
2022-10-05T01:03:24.194Z,68.59
2022-10-05T01:06:05.451Z,68.84
2022-10-05T01:08:49.115Z,68.98
2022-10-05T01:11:27.332Z,69.85
2022-10-05T01:14:06.957Z,69.76
2022-10-05T01:16:48.000Z,70.12
2022-10-05T01:19:40.783Z,69.69
2022-10-05T01:22:21.207Z,69.69
2022-10-05T01:25:08.981Z,69.21
2022-10-05T01:27:49.687Z,69.61
2022-10-05T01:30:23.036Z,69.55
2022-10-05T01:33:03.212Z,69.34
2022-10-05T01:35:46.254Z,69.97
2022-10-05T01:38:25.926Z,70.01
2022-10-05T01:41:05.037Z,70.42
2022-10-05T01:43:43.711Z,70.43
2022-10-05T01:46:26.249Z,70.19
2022-10-05T01:49:14.144Z,70.06
2022-10-05T01:51:57.900Z,69.47
2022-10-05T01:54:40.677Z,69.43
2022-10-05T01:57:21.692Z,69.15
2022-10-05T02:00:07.587Z,68.84
2022-10-05T02:02:49.871Z,69.16
2022-10-05T02:05:23.291Z,69.07
2022-10-05T02:07:58.547Z,68.90
2022-10-05T02:10:34.023Z,68.02
2022-10-05T02:13:10.560Z,67.97
2022-10-05T02:15:45.834Z,68.07
2022-10-05T02:18:23.019Z,68.50
2022-10-05T02:20:56.603Z,69.22
2022-10-05T02:23:36.802Z,69.79
2022-10-05T02:26:10.206Z,71.01
2022-10-05T02:28:45.092Z,71.47
2022-10-05T02:31:20.627Z,71.10
2022-10-05T02:33:51.855Z,70.99
2022-10-05T02:36:30.102Z,70.32
2022-10-05T02:39:13.074Z,69.96
2022-10-05T02:41:52.460Z,70.24
2022-10-05T02:44:34.586Z,70.75
2022-10-05T02:47:13.750Z,70.86
2022-10-05T02:49:52.881Z,70.89
2022-10-05T02:52:30.626Z,70.70
2022-10-05T02:55:09.379Z,70.18
2022-10-05T02:57:46.245Z,69.39
2022-10-05T03:00:20.008Z,69.59
2022-10-05T03:02:59.412Z,69.67
2022-10-05T03:05:36.555Z,69.85
2022-10-05T03:08:12.646Z,69.22
2022-10-05T03:10:54.009Z,69.64
2022-10-05T03:13:33.622Z,69.53
2022-10-05T03:16:17.092Z,69.06
2022-10-05T03:18:59.951Z,69.19
2022-10-05T03:21:44.028Z,69.14
2022-10-05T03:24:38.527Z,68.88
2022-10-05T03:27:19.257Z,69.04
2022-10-05T03:29:58.711Z,69.32
2022-10-05T03:32:42.556Z,69.76
2022-10-05T03:35:19.241Z,70.45
2022-10-05T03:37:54.712Z,70.14
2022-10-05T03:40:32.049Z,70.15
2022-10-05T03:43:20.405Z,70.37
2022-10-05T03:45:58.062Z,70.43
2022-10-05T03:48:35.213Z,70.27
2022-10-05T03:51:14.742Z,70.55
2022-10-05T03:53:50.811Z,70.31
2022-10-05T03:56:30.937Z,69.79
2022-10-05T03:59:06.492Z,69.23
2022-10-05T04:01:44.416Z,68.77
2022-10-05T04:04:25.212Z,68.75
2022-10-05T04:06:58.905Z,68.74
2022-10-05T04:09:35.223Z,69.12
2022-10-05T04:12:13.841Z,68.59
2022-10-05T04:14:50.956Z,68.25
2022-10-05T04:17:32.753Z,68.01
2022-10-05T04:20:08.722Z,68.41
2022-10-05T04:22:45.651Z,68.91
2022-10-05T04:25:19.619Z,68.65
2022-10-05T04:28:00.538Z,68.55
2022-10-05T04:30:34.166Z,68.97
2022-10-05T04:33:12.603Z,68.54
2022-10-05T04:36:03.595Z,68.06
2022-10-05T04:38:45.758Z,68.43
2022-10-05T04:41:30.162Z,69.11
2022-10-05T04:44:23.524Z,68.84
2022-10-05T04:47:11.894Z,69.22
2022-10-05T04:50:01.749Z,68.67
2022-10-05T04:52:39.629Z,68.33
2022-10-05T04:55:20.182Z,67.75
2022-10-05T04:57:56.413Z,68.33
2022-10-05T05:00:30.999Z,68.16
2022-10-05T05:03:36.030Z,68.65
2022-10-05T05:06:19.834Z,68.70
2022-10-05T05:09:18.627Z,68.78
2022-10-05T05:12:03.717Z,69.01
2022-10-05T05:15:13.683Z,68.53
2022-10-05T05:17:58.127Z,68.36
2022-10-05T05:20:43.222Z,68.42
2022-10-05T05:23:23.458Z,69.34
2022-10-05T05:26:04.031Z,70.88
2022-10-05T05:28:45.292Z,70.59
2022-10-05T05:31:26.209Z,68.95
2022-10-05T05:34:06.530Z,68.06
2022-10-05T05:36:50.260Z,68.51
2022-10-05T05:39:28.991Z,69.05
2022-10-05T05:42:17.160Z,69.45
2022-10-05T05:44:52.006Z,69.77
2022-10-05T05:47:31.198Z,72.19
2022-10-05T05:50:20.558Z,75.44
2022-10-05T05:52:54.959Z,74.76
2022-10-05T05:55:31.083Z,70.38
2022-10-05T05:58:10.480Z,69.28
2022-10-05T06:00:46.922Z,68.79
2022-10-05T06:03:23.811Z,69.18
2022-10-05T06:05:59.343Z,69.20
2022-10-05T06:08:36.033Z,68.96
2022-10-05T06:11:19.085Z,69.09
2022-10-05T06:13:50.914Z,69.48
2022-10-05T06:16:26.593Z,70.04
2022-10-05T06:19:01.047Z,70.25
2022-10-05T06:21:36.877Z,70.70
2022-10-05T06:24:16.091Z,70.59
2022-10-05T06:27:25.744Z,70.58
2022-10-05T06:30:08.285Z,70.49
2022-10-05T06:33:04.067Z,70.06
2022-10-05T06:35:47.601Z,69.96
2022-10-05T06:38:40.024Z,69.74
2022-10-05T06:41:20.881Z,69.62
2022-10-05T06:43:59.704Z,69.43
2022-10-05T06:46:51.643Z,69.17
2022-10-05T06:49:48.305Z,68.83
2022-10-05T06:53:09.808Z,68.13
2022-10-05T06:55:52.196Z,67.44
2022-10-05T06:58:42.816Z,66.79
2022-10-05T07:01:25.207Z,65.91
2022-10-05T07:04:11.018Z,65.48
2022-10-05T07:06:47.399Z,65.04
2022-10-05T07:09:27.840Z,64.69
2022-10-05T07:12:23.972Z,63.90
2022-10-05T07:15:26.612Z,63.68
2022-10-05T07:18:13.154Z,63.41
2022-10-05T07:20:51.818Z,62.81
2022-10-05T07:23:42.048Z,62.41
2022-10-05T07:26:20.656Z,61.47
2022-10-05T07:29:13.523Z,60.81
2022-10-05T07:31:51.481Z,60.43
2022-10-05T07:34:34.886Z,60.01
2022-10-05T07:37:28.874Z,59.57
2022-10-05T07:40:11.790Z,59.57
2022-10-05T07:42:56.597Z,58.91
2022-10-05T07:45:40.394Z,58.83
2022-10-05T07:48:19.900Z,58.82
2022-10-05T07:51:00.930Z,58.50
2022-10-05T07:53:37.922Z,57.66
2022-10-05T07:56:15.931Z,57.78
2022-10-05T07:58:52.735Z,58.04
2022-10-05T08:01:29.651Z,57.60
2022-10-05T08:04:09.976Z,57.24
2022-10-05T08:06:50.460Z,56.82
2022-10-05T08:09:42.374Z,56.18
2022-10-05T08:12:24.541Z,56.11
2022-10-05T08:15:00.019Z,56.31
2022-10-05T08:17:40.976Z,55.94
2022-10-05T08:20:28.492Z,55.86
2022-10-05T08:23:03.202Z,55.52
2022-10-05T08:25:47.440Z,56.08
2022-10-05T08:28:22.034Z,56.46
2022-10-05T08:30:57.853Z,56.83
2022-10-05T08:33:34.129Z,56.50
2022-10-05T08:36:11.749Z,56.19
2022-10-05T08:38:43.207Z,56.25
2022-10-05T08:41:47.119Z,56.11
2022-10-05T08:44:58.743Z,56.24
2022-10-05T08:47:58.240Z,55.56
2022-10-05T08:50:35.779Z,55.55
2022-10-05T08:53:25.122Z,55.78
2022-10-05T08:56:30.442Z,55.58
2022-10-05T08:59:16.797Z,55.30
2022-10-05T09:02:09.756Z,56.13
2022-10-05T09:04:55.006Z,56.61
2022-10-05T09:07:46.395Z,56.76
2022-10-05T09:10:45.871Z,56.57
2022-10-05T09:13:46.348Z,56.60
2022-10-05T09:16:38.310Z,56.21
2022-10-05T09:19:32.711Z,56.23
2022-10-05T09:22:15.137Z,55.75
2022-10-05T09:24:57.856Z,55.21
2022-10-05T09:27:38.823Z,55.16
2022-10-05T09:30:32.223Z,55.02
2022-10-05T09:33:34.757Z,55.06
2022-10-05T09:36:32.418Z,54.59
2022-10-05T09:39:29.234Z,54.09
2022-10-05T09:42:18.519Z,53.91
2022-10-05T09:45:22.804Z,53.17
2022-10-05T09:48:13.127Z,53.00
2022-10-05T09:51:12.755Z,53.09
2022-10-05T09:54:13.998Z,52.59
2022-10-05T09:57:12.384Z,53.10
2022-10-05T10:00:13.082Z,52.26
2022-10-05T10:03:21.282Z,52.89
2022-10-05T10:06:10.389Z,51.83
2022-10-05T10:08:57.507Z,51.71
2022-10-05T10:11:42.661Z,52.32
2022-10-05T10:14:42.792Z,52.03
2022-10-05T10:17:30.047Z,52.59
2022-10-05T10:20:28.630Z,52.49
2022-10-05T10:23:28.468Z,52.25
2022-10-05T10:26:31.827Z,52.77
2022-10-05T10:29:30.202Z,52.53
2022-10-05T10:32:14.605Z,52.54
2022-10-05T10:35:05.452Z,52.93
2022-10-05T10:38:02.658Z,52.63
2022-10-05T10:40:43.712Z,52.80
2022-10-05T10:43:43.838Z,53.28
2022-10-05T10:46:33.265Z,53.41
2022-10-05T10:49:20.483Z,53.33
2022-10-05T10:52:13.057Z,53.29
2022-10-05T10:55:23.245Z,53.40
2022-10-05T10:58:15.060Z,53.34
2022-10-05T11:00:54.502Z,53.02
2022-10-05T11:04:01.371Z,52.70
2022-10-05T11:07:04.734Z,52.28
2022-10-05T11:09:54.927Z,51.75
2022-10-05T11:12:41.485Z,51.35
2022-10-05T11:15:43.409Z,51.43
2022-10-05T11:18:33.566Z,51.56
2022-10-05T11:21:21.842Z,51.46
2022-10-05T11:24:34.316Z,51.69
2022-10-05T11:27:28.577Z,51.54
2022-10-05T11:30:25.783Z,51.72
2022-10-05T11:33:30.064Z,51.88
2022-10-05T11:36:37.726Z,51.44
2022-10-05T11:39:38.163Z,51.19
2022-10-05T11:42:30.860Z,50.86
2022-10-05T11:45:25.921Z,51.19
2022-10-05T11:48:34.837Z,51.06
2022-10-05T11:51:29.935Z,51.44
2022-10-05T11:54:17.534Z,51.51
2022-10-05T11:56:55.244Z,51.83
2022-10-05T11:59:35.897Z,51.96
2022-10-05T12:02:22.109Z,52.21
2022-10-05T12:05:01.829Z,52.40
2022-10-05T12:07:41.428Z,52.34
2022-10-05T12:10:24.512Z,52.59
2022-10-05T12:13:09.820Z,52.63
2022-10-05T12:15:49.368Z,52.77
2022-10-05T12:18:25.293Z,52.68
2022-10-05T12:21:03.300Z,52.22
2022-10-05T12:23:39.107Z,52.20
2022-10-05T12:26:15.198Z,52.22
2022-10-05T12:28:50.848Z,52.22
2022-10-05T12:31:30.195Z,52.23
2022-10-05T12:34:10.127Z,52.07
2022-10-05T12:37:03.601Z,52.12
2022-10-05T12:39:44.594Z,52.02
2022-10-05T12:42:27.417Z,52.20
2022-10-05T12:45:19.078Z,52.47
2022-10-05T12:48:09.741Z,52.43
2022-10-05T12:50:48.262Z,52.67
2022-10-05T12:53:34.352Z,52.92
2022-10-05T12:56:11.126Z,53.32
2022-10-05T12:58:52.774Z,53.54
2022-10-05T13:01:36.217Z,53.66
2022-10-05T13:04:24.066Z,53.92
2022-10-05T13:07:17.415Z,54.11
2022-10-05T13:09:58.453Z,54.16
2022-10-05T13:12:38.475Z,54.15
2022-10-05T13:15:18.379Z,54.30
2022-10-05T13:17:58.640Z,54.41
2022-10-05T13:20:35.290Z,54.52
2022-10-05T13:23:14.212Z,54.72
2022-10-05T13:25:52.158Z,55.01
2022-10-05T13:28:27.398Z,54.96
2022-10-05T13:31:06.925Z,55.02
2022-10-05T13:33:57.472Z,55.10
2022-10-05T13:36:38.440Z,55.14
2022-10-05T13:39:22.460Z,55.22
2022-10-05T13:42:00.306Z,55.37
2022-10-05T13:44:38.283Z,55.35
2022-10-05T13:47:16.811Z,55.56
2022-10-05T13:50:09.212Z,55.54
2022-10-05T13:52:50.606Z,55.56
2022-10-05T13:55:34.932Z,55.43
2022-10-05T13:58:18.131Z,55.73
2022-10-05T14:00:51.853Z,55.43
2022-10-05T14:03:32.353Z,55.39
2022-10-05T14:06:06.689Z,55.36
2022-10-05T14:08:48.894Z,55.53
2022-10-05T14:11:33.511Z,55.43
2022-10-05T14:14:18.141Z,55.50
2022-10-05T14:16:56.223Z,55.63
2022-10-05T14:19:28.399Z,55.39
2022-10-05T14:22:04.600Z,55.36
2022-10-05T14:24:44.072Z,55.61
2022-10-05T14:27:24.024Z,55.79
2022-10-05T14:30:03.215Z,55.53
2022-10-05T14:32:44.443Z,55.52
2022-10-05T14:35:22.123Z,55.77
2022-10-05T14:37:58.159Z,55.63
2022-10-05T14:40:34.337Z,55.78
2022-10-05T14:43:21.211Z,55.87
2022-10-05T14:46:01.386Z,55.89
2022-10-05T14:48:44.446Z,55.91
2022-10-05T14:51:31.819Z,56.02
2022-10-05T14:54:27.638Z,56.10
2022-10-05T14:57:12.538Z,56.20
2022-10-05T15:00:00.161Z,56.44
2022-10-05T15:03:00.813Z,56.52
2022-10-05T15:05:36.526Z,56.51
2022-10-05T15:08:24.237Z,56.59
2022-10-05T15:11:02.030Z,56.78
2022-10-05T15:13:35.366Z,56.78
2022-10-05T15:16:15.779Z,56.84
2022-10-05T15:18:51.068Z,57.11
2022-10-05T15:21:51.771Z,57.22
2022-10-05T15:24:27.957Z,57.27
2022-10-05T15:27:04.125Z,57.54
2022-10-05T15:29:51.300Z,57.82
2022-10-05T15:32:42.593Z,58.08
2022-10-05T15:35:49.926Z,58.33
2022-10-05T15:38:28.387Z,58.56
2022-10-05T15:41:14.792Z,58.71
2022-10-05T15:44:06.536Z,58.95
2022-10-05T15:46:50.862Z,59.08
2022-10-05T15:49:23.356Z,59.25
2022-10-05T15:52:01.656Z,59.40
2022-10-05T15:54:58.099Z,59.53
2022-10-05T15:57:40.015Z,59.70
2022-10-05T16:00:15.018Z,59.82
2022-10-05T16:02:52.854Z,59.98
2022-10-05T16:05:59.248Z,60.15
2022-10-05T16:08:51.618Z,60.22
2022-10-05T16:11:36.941Z,60.42
2022-10-05T16:14:21.450Z,60.52
2022-10-05T16:17:03.364Z,60.66
2022-10-05T16:19:42.391Z,60.79
2022-10-05T16:22:21.764Z,60.96
2022-10-05T16:25:10.469Z,61.19
2022-10-05T16:27:54.126Z,61.29
2022-10-05T16:30:26.444Z,61.49
2022-10-05T16:33:02.019Z,61.68
2022-10-05T16:35:44.639Z,61.90
2022-10-05T16:38:27.168Z,62.13
2022-10-05T16:41:08.074Z,62.27
2022-10-05T16:43:50.806Z,62.47
2022-10-05T16:46:30.146Z,62.54
2022-10-05T16:49:10.661Z,62.67
2022-10-05T16:51:52.550Z,62.72
2022-10-05T16:54:27.168Z,62.79
2022-10-05T16:57:02.721Z,62.88
2022-10-05T16:59:58.003Z,62.97
2022-10-05T17:02:42.169Z,63.12
2022-10-05T17:05:29.504Z,63.22
2022-10-05T17:08:15.783Z,63.44
2022-10-05T17:10:59.701Z,63.46
2022-10-05T17:13:55.248Z,63.62
2022-10-05T17:16:36.331Z,63.64
2022-10-05T17:19:32.687Z,63.81
2022-10-05T17:22:03.695Z,63.90
2022-10-05T17:24:53.262Z,63.80
2022-10-05T17:27:32.821Z,63.87
2022-10-05T17:30:39.038Z,63.94
2022-10-05T17:33:26.534Z,63.99
2022-10-05T17:36:18.469Z,63.94
2022-10-05T17:39:12.227Z,64.09
2022-10-05T17:41:43.372Z,64.09
2022-10-05T17:44:24.778Z,64.06
2022-10-05T17:46:57.457Z,64.23
2022-10-05T17:50:16.156Z,64.30
2022-10-05T17:53:24.759Z,64.31
2022-10-05T17:56:06.020Z,64.54
2022-10-05T17:59:03.401Z,64.60
2022-10-05T18:01:38.639Z,64.77
2022-10-05T18:04:44.931Z,64.69
2022-10-05T18:07:22.976Z,64.82
2022-10-05T18:10:22.098Z,64.80
2022-10-05T18:13:21.748Z,64.91
2022-10-05T18:15:52.584Z,64.71
2022-10-05T18:18:57.358Z,64.76
2022-10-05T18:21:38.988Z,64.85
2022-10-05T18:24:46.376Z,64.95
2022-10-05T18:27:47.422Z,64.96
2022-10-05T18:30:23.148Z,64.98
2022-10-05T18:33:27.168Z,65.05
2022-10-05T18:36:07.912Z,65.06
2022-10-05T18:38:51.338Z,65.22
2022-10-05T18:41:48.849Z,65.30
2022-10-05T18:44:37.329Z,65.25
2022-10-05T18:47:19.162Z,65.22
2022-10-05T18:50:06.523Z,65.39
2022-10-05T18:52:53.559Z,65.33
2022-10-05T18:55:32.943Z,65.47
2022-10-05T18:58:21.913Z,65.59
2022-10-05T19:01:20.753Z,65.68
2022-10-05T19:04:03.369Z,65.97
2022-10-05T19:06:41.438Z,66.06
2022-10-05T19:09:24.836Z,66.28
2022-10-05T19:12:03.414Z,66.36
2022-10-05T19:14:46.920Z,66.36
2022-10-05T19:17:26.870Z,66.33
2022-10-05T19:20:17.412Z,66.43
2022-10-05T19:23:05.339Z,66.38
2022-10-05T19:25:46.213Z,66.58
2022-10-05T19:28:31.015Z,66.55
2022-10-05T19:31:19.536Z,66.62
2022-10-05T19:34:03.510Z,66.84
2022-10-05T19:36:46.971Z,66.82
2022-10-05T19:39:28.464Z,66.93
2022-10-05T19:42:17.922Z,66.90
2022-10-05T19:45:04.544Z,66.99
2022-10-05T19:47:47.435Z,67.20
2022-10-05T19:50:29.765Z,67.18
2022-10-05T19:53:07.412Z,67.20
2022-10-05T19:55:41.591Z,67.15
2022-10-05T19:58:24.721Z,67.21
2022-10-05T20:01:01.631Z,67.27
2022-10-05T20:03:35.449Z,67.57
2022-10-05T20:06:08.834Z,67.75
2022-10-05T20:08:45.321Z,68.15
2022-10-05T20:11:17.522Z,67.92
2022-10-05T20:14:12.962Z,67.71
2022-10-05T20:17:15.984Z,67.51
2022-10-05T20:20:04.345Z,67.61
2022-10-05T20:22:37.991Z,67.41
2022-10-05T20:25:29.839Z,67.48
2022-10-05T20:28:02.381Z,67.46
2022-10-05T20:30:34.261Z,67.42
2022-10-05T20:33:10.460Z,67.32
2022-10-05T20:35:41.161Z,67.28
2022-10-05T20:38:11.835Z,67.40
2022-10-05T20:40:42.474Z,67.32
2022-10-05T20:43:13.222Z,67.43
2022-10-05T20:45:44.419Z,67.22
2022-10-05T20:48:16.597Z,67.15
2022-10-05T20:50:47.519Z,67.24
2022-10-05T20:53:18.198Z,67.09
2022-10-05T20:55:48.921Z,67.29
2022-10-05T20:58:19.588Z,67.51
2022-10-05T21:01:08.030Z,67.41
2022-10-05T21:03:39.002Z,67.24
2022-10-05T21:06:10.215Z,67.26
2022-10-05T21:08:40.894Z,67.02
2022-10-05T21:11:11.466Z,66.85
2022-10-05T21:13:45.807Z,66.90
2022-10-05T21:16:18.421Z,67.25
2022-10-05T21:18:49.899Z,67.05
2022-10-05T21:21:20.911Z,67.24
2022-10-05T21:23:51.570Z,67.53
2022-10-05T21:26:22.249Z,67.49
2022-10-05T21:28:52.920Z,67.45
2022-10-05T21:31:23.658Z,67.18
2022-10-05T21:33:54.530Z,67.29
2022-10-05T21:36:25.638Z,67.33
2022-10-05T21:38:57.002Z,67.36
2022-10-05T21:41:27.821Z,67.22
2022-10-05T21:43:58.408Z,66.93
2022-10-05T21:46:30.089Z,66.92
2022-10-05T21:49:00.690Z,67.02
2022-10-05T21:51:31.523Z,67.01
2022-10-05T21:54:04.279Z,67.14
2022-10-05T21:56:38.851Z,67.19
2022-10-05T21:59:12.621Z,67.22
2022-10-05T22:01:43.268Z,67.31
2022-10-05T22:04:15.037Z,67.49
2022-10-05T22:06:45.897Z,67.50
2022-10-05T22:09:16.629Z,67.29
2022-10-05T22:11:50.251Z,67.18
2022-10-05T22:14:21.030Z,67.01
2022-10-05T22:16:53.299Z,66.95
2022-10-05T22:19:22.388Z,67.08
2022-10-05T22:21:53.248Z,67.39
2022-10-05T22:24:23.883Z,67.19
2022-10-05T22:26:54.723Z,67.29
2022-10-05T22:29:25.697Z,67.66
2022-10-05T22:31:58.070Z,67.91
2022-10-05T22:34:27.232Z,67.83
2022-10-05T22:36:58.654Z,68.02
2022-10-05T22:39:29.558Z,68.16
2022-10-05T22:42:00.517Z,68.03
2022-10-05T22:44:31.086Z,68.14
2022-10-05T22:47:02.126Z,67.94
2022-10-05T22:49:32.961Z,68.00
2022-10-05T22:52:03.820Z,68.10
2022-10-05T22:54:37.329Z,67.89
2022-10-05T22:57:08.346Z,68.25
2022-10-05T22:59:38.980Z,68.28
2022-10-05T23:02:09.688Z,68.22
2022-10-05T23:04:40.592Z,68.41
2022-10-05T23:07:11.235Z,68.45
2022-10-05T23:09:41.884Z,68.51
2022-10-05T23:12:13.644Z,68.63
2022-10-05T23:14:44.252Z,68.36
2022-10-05T23:17:14.830Z,68.57
2022-10-05T23:19:45.477Z,68.62
2022-10-05T23:22:16.183Z,68.34
2022-10-05T23:24:46.800Z,68.76
2022-10-05T23:27:17.533Z,68.62
2022-10-05T23:29:48.307Z,68.66
2022-10-05T23:32:18.936Z,68.85
2022-10-05T23:34:49.620Z,68.95
2022-10-05T23:37:22.719Z,69.10
2022-10-05T23:39:53.288Z,69.31
2022-10-05T23:42:24.115Z,69.44
2022-10-05T23:44:54.723Z,69.43
2022-10-05T23:47:25.470Z,69.31
2022-10-05T23:49:56.537Z,69.47
2022-10-05T23:52:27.332Z,69.69
2022-10-05T23:54:58.273Z,69.80
2022-10-05T23:57:28.885Z,69.91
